sensor_id;sensor_type;location;lat;lon;timestamp;pressure;altitude;pressure_sealevel;temperature;humidity
23996;BME280;12207;50.076;8.848;2022-09-28T00:02:18;98261.22;;;8.69;100.00
23996;BME280;12207;50.076;8.848;2022-09-28T00:04:44;98252.81;;;8.72;100.00
23996;BME280;12207;50.076;8.848;2022-09-28T00:07:11;98246.84;;;8.71;100.00
23996;BME280;12207;50.076;8.848;2022-09-28T00:09:37;98245.97;;;8.71;100.00
23996;BME280;12207;50.076;8.848;2022-09-28T00:12:04;98238.34;;;8.71;100.00
23996;BME280;12207;50.076;8.848;2022-09-28T00:14:31;98232.50;;;8.73;100.00
23996;BME280;12207;50.076;8.848;2022-09-28T00:16:58;98229.13;;;8.74;100.00
23996;BME280;12207;50.076;8.848;2022-09-28T00:19:24;98232.56;;;8.75;100.00
23996;BME280;12207;50.076;8.848;2022-09-28T00:21:51;98225.81;;;8.77;100.00
23996;BME280;12207;50.076;8.848;2022-09-28T00:24:19;98214.84;;;8.79;100.00
23996;BME280;12207;50.076;8.848;2022-09-28T00:26:53;98204.59;;;8.76;100.00
23996;BME280;12207;50.076;8.848;2022-09-28T00:31:46;98200.34;;;8.75;100.00
23996;BME280;12207;50.076;8.848;2022-09-28T00:34:13;98193.66;;;8.79;100.00
23996;BME280;12207;50.076;8.848;2022-09-28T00:36:44;98186.78;;;8.75;100.00
23996;BME280;12207;50.076;8.848;2022-09-28T00:39:11;98183.59;;;8.83;100.00
23996;BME280;12207;50.076;8.848;2022-09-28T00:41:39;98180.00;;;8.75;100.00
23996;BME280;12207;50.076;8.848;2022-09-28T00:46:51;98178.38;;;8.79;100.00
23996;BME280;12207;50.076;8.848;2022-09-28T00:49:19;98158.94;;;8.81;100.00
23996;BME280;12207;50.076;8.848;2022-09-28T00:51:47;98155.44;;;8.77;100.00
23996;BME280;12207;50.076;8.848;2022-09-28T00:54:14;98157.91;;;8.74;100.00
23996;BME280;12207;50.076;8.848;2022-09-28T00:56:41;98155.56;;;8.82;100.00
23996;BME280;12207;50.076;8.848;2022-09-28T00:59:11;98140.38;;;8.83;100.00
23996;BME280;12207;50.076;8.848;2022-09-28T01:01:38;98134.88;;;8.68;100.00
23996;BME280;12207;50.076;8.848;2022-09-28T01:04:05;98131.78;;;8.80;100.00
23996;BME280;12207;50.076;8.848;2022-09-28T01:06:33;98128.50;;;8.84;100.00
23996;BME280;12207;50.076;8.848;2022-09-28T01:09:00;98133.63;;;8.85;100.00
23996;BME280;12207;50.076;8.848;2022-09-28T01:11:32;98126.19;;;8.93;100.00
23996;BME280;12207;50.076;8.848;2022-09-28T01:13:58;98122.66;;;8.88;100.00
23996;BME280;12207;50.076;8.848;2022-09-28T01:21:49;98104.09;;;8.92;100.00
23996;BME280;12207;50.076;8.848;2022-09-28T01:27:06;98087.97;;;8.90;100.00
23996;BME280;12207;50.076;8.848;2022-09-28T01:32:08;98085.56;;;8.96;100.00
23996;BME280;12207;50.076;8.848;2022-09-28T01:34:49;98088.13;;;8.98;100.00
23996;BME280;12207;50.076;8.848;2022-09-28T01:37:19;98075.53;;;9.02;100.00
23996;BME280;12207;50.076;8.848;2022-09-28T01:39:47;98066.25;;;9.04;100.00
23996;BME280;12207;50.076;8.848;2022-09-28T01:42:19;98070.59;;;9.10;100.00
23996;BME280;12207;50.076;8.848;2022-09-28T01:44:48;98067.38;;;9.19;100.00
23996;BME280;12207;50.076;8.848;2022-09-28T01:47:16;98072.28;;;9.09;100.00
23996;BME280;12207;50.076;8.848;2022-09-28T01:49:54;98065.28;;;8.99;100.00
23996;BME280;12207;50.076;8.848;2022-09-28T01:52:32;98069.66;;;9.05;100.00
23996;BME280;12207;50.076;8.848;2022-09-28T01:55:10;98066.06;;;8.98;100.00
23996;BME280;12207;50.076;8.848;2022-09-28T01:57:44;98055.22;;;9.05;100.00
23996;BME280;12207;50.076;8.848;2022-09-28T02:00:14;98052.69;;;9.05;100.00
23996;BME280;12207;50.076;8.848;2022-09-28T02:02:48;98050.28;;;9.11;100.00
23996;BME280;12207;50.076;8.848;2022-09-28T02:05:24;98045.31;;;9.18;100.00
23996;BME280;12207;50.076;8.848;2022-09-28T02:07:54;98045.25;;;9.15;100.00
23996;BME280;12207;50.076;8.848;2022-09-28T02:10:26;98029.28;;;9.20;100.00
23996;BME280;12207;50.076;8.848;2022-09-28T02:13:07;98035.25;;;9.22;100.00
23996;BME280;12207;50.076;8.848;2022-09-28T02:15:42;98027.56;;;9.21;100.00
23996;BME280;12207;50.076;8.848;2022-09-28T02:18:11;98039.53;;;9.25;100.00
23996;BME280;12207;50.076;8.848;2022-09-28T02:20:38;98032.91;;;9.31;100.00
23996;BME280;12207;50.076;8.848;2022-09-28T02:23:06;98023.72;;;9.40;100.00
23996;BME280;12207;50.076;8.848;2022-09-28T02:25:39;98025.28;;;9.33;100.00
23996;BME280;12207;50.076;8.848;2022-09-28T02:28:06;98016.09;;;9.40;100.00
23996;BME280;12207;50.076;8.848;2022-09-28T02:30:35;98014.44;;;9.40;100.00
23996;BME280;12207;50.076;8.848;2022-09-28T02:35:38;98007.78;;;9.48;100.00
23996;BME280;12207;50.076;8.848;2022-09-28T02:38:06;98011.34;;;9.55;100.00
23996;BME280;12207;50.076;8.848;2022-09-28T02:40:33;98007.91;;;9.54;100.00
23996;BME280;12207;50.076;8.848;2022-09-28T02:48:04;98016.50;;;9.58;100.00
23996;BME280;12207;50.076;8.848;2022-09-28T02:50:48;98024.84;;;9.52;100.00
23996;BME280;12207;50.076;8.848;2022-09-28T03:01:20;98027.72;;;9.27;100.00
23996;BME280;12207;50.076;8.848;2022-09-28T03:04:05;98017.47;;;9.24;100.00
23996;BME280;12207;50.076;8.848;2022-09-28T03:06:37;98020.00;;;9.24;100.00
23996;BME280;12207;50.076;8.848;2022-09-28T03:09:08;98009.75;;;9.21;100.00
23996;BME280;12207;50.076;8.848;2022-09-28T03:11:41;98014.78;;;9.16;100.00
23996;BME280;12207;50.076;8.848;2022-09-28T03:14:08;98012.97;;;9.12;100.00
23996;BME280;12207;50.076;8.848;2022-09-28T03:16:35;98015.50;;;9.12;100.00
23996;BME280;12207;50.076;8.848;2022-09-28T03:19:02;98016.34;;;9.11;100.00
23996;BME280;12207;50.076;8.848;2022-09-28T03:21:28;98016.38;;;9.12;100.00
23996;BME280;12207;50.076;8.848;2022-09-28T03:23:54;98014.66;;;9.11;100.00
23996;BME280;12207;50.076;8.848;2022-09-28T03:26:21;98019.44;;;8.98;100.00
23996;BME280;12207;50.076;8.848;2022-09-28T03:28:48;98018.56;;;8.96;100.00
23996;BME280;12207;50.076;8.848;2022-09-28T03:31:14;98022.16;;;9.05;100.00
23996;BME280;12207;50.076;8.848;2022-09-28T03:33:42;98024.56;;;8.99;100.00
23996;BME280;12207;50.076;8.848;2022-09-28T03:36:08;98032.59;;;8.80;100.00
23996;BME280;12207;50.076;8.848;2022-09-28T03:38:35;98023.28;;;8.80;100.00
23996;BME280;12207;50.076;8.848;2022-09-28T03:41:01;98020.63;;;8.76;100.00
23996;BME280;12207;50.076;8.848;2022-09-28T03:43:28;98024.88;;;8.77;100.00
23996;BME280;12207;50.076;8.848;2022-09-28T03:45:55;98023.19;;;8.76;100.00
23996;BME280;12207;50.076;8.848;2022-09-28T03:48:23;98022.28;;;8.74;100.00
23996;BME280;12207;50.076;8.848;2022-09-28T03:50:53;98022.28;;;8.74;100.00
23996;BME280;12207;50.076;8.848;2022-09-28T03:53:20;98019.00;;;8.78;100.00
23996;BME280;12207;50.076;8.848;2022-09-28T03:55:46;98018.69;;;8.65;100.00
23996;BME280;12207;50.076;8.848;2022-09-28T03:58:13;98012.78;;;8.66;100.00
23996;BME280;12207;50.076;8.848;2022-09-28T04:00:39;98017.03;;;8.66;100.00
23996;BME280;12207;50.076;8.848;2022-09-28T04:03:06;98013.59;;;8.65;100.00
23996;BME280;12207;50.076;8.848;2022-09-28T04:05:33;98019.66;;;8.71;100.00
23996;BME280;12207;50.076;8.848;2022-09-28T04:08:00;98013.69;;;8.69;100.00
23996;BME280;12207;50.076;8.848;2022-09-28T04:10:26;98011.19;;;8.70;100.00
23996;BME280;12207;50.076;8.848;2022-09-28T04:12:53;98011.97;;;8.67;100.00
23996;BME280;12207;50.076;8.848;2022-09-28T04:15:20;98016.00;;;8.59;100.00
23996;BME280;12207;50.076;8.848;2022-09-28T04:17:47;98021.06;;;8.58;100.00
23996;BME280;12207;50.076;8.848;2022-09-28T04:20:13;98028.00;;;8.65;100.00
23996;BME280;12207;50.076;8.848;2022-09-28T04:22:40;98025.25;;;8.56;100.00
23996;BME280;12207;50.076;8.848;2022-09-28T04:25:09;98033.66;;;8.53;100.00
23996;BME280;12207;50.076;8.848;2022-09-28T04:27:35;98028.50;;;8.50;100.00
23996;BME280;12207;50.076;8.848;2022-09-28T04:30:21;98030.09;;;8.47;100.00
23996;BME280;12207;50.076;8.848;2022-09-28T04:32:47;98033.25;;;8.38;100.00
23996;BME280;12207;50.076;8.848;2022-09-28T04:35:14;98036.09;;;8.49;100.00
23996;BME280;12207;50.076;8.848;2022-09-28T04:37:40;98031.78;;;8.46;100.00
23996;BME280;12207;50.076;8.848;2022-09-28T04:40:07;98029.03;;;8.38;100.00
23996;BME280;12207;50.076;8.848;2022-09-28T04:42:34;98029.81;;;8.36;100.00
23996;BME280;12207;50.076;8.848;2022-09-28T04:45:01;98033.09;;;8.32;100.00
23996;BME280;12207;50.076;8.848;2022-09-28T04:47:29;98038.94;;;8.28;100.00
23996;BME280;12207;50.076;8.848;2022-09-28T04:49:56;98037.25;;;8.30;100.00
23996;BME280;12207;50.076;8.848;2022-09-28T04:52:23;98044.16;;;8.34;100.00
23996;BME280;12207;50.076;8.848;2022-09-28T04:54:49;98042.25;;;8.25;100.00
23996;BME280;12207;50.076;8.848;2022-09-28T04:57:16;98050.88;;;8.32;100.00
23996;BME280;12207;50.076;8.848;2022-09-28T04:59:42;98052.56;;;8.31;100.00
23996;BME280;12207;50.076;8.848;2022-09-28T05:02:09;98057.78;;;8.36;100.00
23996;BME280;12207;50.076;8.848;2022-09-28T05:04:37;98053.47;;;8.33;100.00
23996;BME280;12207;50.076;8.848;2022-09-28T05:07:03;98056.22;;;8.41;100.00
23996;BME280;12207;50.076;8.848;2022-09-28T05:09:30;98054.63;;;8.44;100.00
23996;BME280;12207;50.076;8.848;2022-09-28T05:11:56;98053.69;;;8.41;100.00
23996;BME280;12207;50.076;8.848;2022-09-28T05:14:23;98057.00;;;8.38;100.00
23996;BME280;12207;50.076;8.848;2022-09-28T05:16:49;98060.44;;;8.39;100.00
23996;BME280;12207;50.076;8.848;2022-09-28T05:19:16;98059.53;;;8.38;100.00
23996;BME280;12207;50.076;8.848;2022-09-28T05:21:43;98064.00;;;8.47;100.00
23996;BME280;12207;50.076;8.848;2022-09-28T05:24:10;98068.28;;;8.48;100.00
23996;BME280;12207;50.076;8.848;2022-09-28T05:26:37;98065.69;;;8.47;100.00
23996;BME280;12207;50.076;8.848;2022-09-28T05:29:03;98065.81;;;8.51;100.00
23996;BME280;12207;50.076;8.848;2022-09-28T05:31:30;98068.75;;;8.35;100.00
23996;BME280;12207;50.076;8.848;2022-09-28T05:33:57;98070.59;;;8.39;100.00
23996;BME280;12207;50.076;8.848;2022-09-28T05:36:24;98078.41;;;8.47;100.00
23996;BME280;12207;50.076;8.848;2022-09-28T05:38:52;98080.59;;;8.34;100.00
23996;BME280;12207;50.076;8.848;2022-09-28T05:41:19;98075.84;;;8.45;100.00
23996;BME280;12207;50.076;8.848;2022-09-28T05:43:45;98082.63;;;8.46;100.00
23996;BME280;12207;50.076;8.848;2022-09-28T05:46:12;98085.31;;;8.52;100.00
23996;BME280;12207;50.076;8.848;2022-09-28T05:48:38;98084.50;;;8.53;100.00
23996;BME280;12207;50.076;8.848;2022-09-28T05:51:05;98091.25;;;8.51;100.00
23996;BME280;12207;50.076;8.848;2022-09-28T05:53:31;98088.78;;;8.54;100.00
23996;BME280;12207;50.076;8.848;2022-09-28T05:55:58;98091.25;;;8.51;100.00
23996;BME280;12207;50.076;8.848;2022-09-28T05:58:25;98097.19;;;8.52;100.00
23996;BME280;12207;50.076;8.848;2022-09-28T06:00:53;98096.47;;;8.57;100.00
23996;BME280;12207;50.076;8.848;2022-09-28T06:03:20;98096.41;;;8.54;100.00
23996;BME280;12207;50.076;8.848;2022-09-28T06:05:46;98096.41;;;8.56;100.00
23996;BME280;12207;50.076;8.848;2022-09-28T06:08:13;98094.09;;;8.63;100.00
23996;BME280;12207;50.076;8.848;2022-09-28T06:10:40;98095.72;;;8.61;100.00
23996;BME280;12207;50.076;8.848;2022-09-28T06:13:06;98094.19;;;8.68;100.00
23996;BME280;12207;50.076;8.848;2022-09-28T06:15:34;98098.41;;;8.67;100.00
23996;BME280;12207;50.076;8.848;2022-09-28T06:18:05;98105.69;;;8.87;100.00
23996;BME280;12207;50.076;8.848;2022-09-28T06:20:33;98107.66;;;8.99;100.00
23996;BME280;12207;50.076;8.848;2022-09-28T06:22:59;98111.41;;;9.15;100.00
23996;BME280;12207;50.076;8.848;2022-09-28T06:25:26;98111.84;;;9.33;100.00
23996;BME280;12207;50.076;8.848;2022-09-28T06:27:56;98106.75;;;9.33;100.00
23996;BME280;12207;50.076;8.848;2022-09-28T06:30:23;98118.69;;;9.35;100.00
23996;BME280;12207;50.076;8.848;2022-09-28T06:32:55;98121.63;;;9.52;100.00
23996;BME280;12207;50.076;8.848;2022-09-28T06:35:23;98124.09;;;9.90;100.00
23996;BME280;12207;50.076;8.848;2022-09-28T06:37:51;98126.31;;;10.16;100.00
23996;BME280;12207;50.076;8.848;2022-09-28T06:40:18;98126.84;;;10.42;100.00
23996;BME280;12207;50.076;8.848;2022-09-28T06:43:01;98122.97;;;10.64;100.00
23996;BME280;12207;50.076;8.848;2022-09-28T06:45:28;98124.72;;;10.66;100.00
23996;BME280;12207;50.076;8.848;2022-09-28T06:47:56;98133.19;;;10.64;100.00
23996;BME280;12207;50.076;8.848;2022-09-28T06:50:24;98140.88;;;10.67;100.00
23996;BME280;12207;50.076;8.848;2022-09-28T06:52:51;98139.78;;;10.53;100.00
23996;BME280;12207;50.076;8.848;2022-09-28T06:55:19;98141.25;;;10.40;100.00
23996;BME280;12207;50.076;8.848;2022-09-28T06:57:45;98146.22;;;10.32;100.00
23996;BME280;12207;50.076;8.848;2022-09-28T07:00:12;98154.53;;;10.25;100.00
23996;BME280;12207;50.076;8.848;2022-09-28T07:02:39;98156.59;;;10.41;100.00
23996;BME280;12207;50.076;8.848;2022-09-28T07:05:06;98155.44;;;10.71;100.00
23996;BME280;12207;50.076;8.848;2022-09-28T07:07:34;98156.41;;;10.79;100.00
23996;BME280;12207;50.076;8.848;2022-09-28T07:10:01;98163.31;;;10.83;100.00
23996;BME280;12207;50.076;8.848;2022-09-28T07:12:27;98169.50;;;10.98;100.00
23996;BME280;12207;50.076;8.848;2022-09-28T07:14:55;98169.81;;;11.16;100.00
23996;BME280;12207;50.076;8.848;2022-09-28T07:17:23;98173.69;;;11.47;100.00
23996;BME280;12207;50.076;8.848;2022-09-28T07:19:50;98176.28;;;11.49;100.00
23996;BME280;12207;50.076;8.848;2022-09-28T07:22:18;98176.16;;;11.39;100.00
23996;BME280;12207;50.076;8.848;2022-09-28T07:24:45;98179.22;;;11.18;100.00
23996;BME280;12207;50.076;8.848;2022-09-28T07:27:12;98180.63;;;11.01;100.00
23996;BME280;12207;50.076;8.848;2022-09-28T07:29:38;98190.91;;;11.59;100.00
23996;BME280;12207;50.076;8.848;2022-09-28T07:32:05;98188.38;;;11.62;100.00
23996;BME280;12207;50.076;8.848;2022-09-28T07:34:31;98199.91;;;11.90;100.00
23996;BME280;12207;50.076;8.848;2022-09-28T07:37:05;98188.31;;;12.17;100.00
23996;BME280;12207;50.076;8.848;2022-09-28T07:39:32;98205.59;;;12.36;100.00
23996;BME280;12207;50.076;8.848;2022-09-28T07:42:18;98200.88;;;12.73;100.00
23996;BME280;12207;50.076;8.848;2022-09-28T07:44:45;98206.16;;;12.85;100.00
23996;BME280;12207;50.076;8.848;2022-09-28T07:47:11;98209.66;;;12.95;100.00
23996;BME280;12207;50.076;8.848;2022-09-28T07:49:38;98216.63;;;13.10;100.00
23996;BME280;12207;50.076;8.848;2022-09-28T07:52:05;98217.41;;;13.06;100.00
23996;BME280;12207;50.076;8.848;2022-09-28T07:54:31;98222.53;;;13.01;100.00
23996;BME280;12207;50.076;8.848;2022-09-28T07:56:58;98223.75;;;13.40;100.00
23996;BME280;12207;50.076;8.848;2022-09-28T07:59:24;98227.94;;;13.32;100.00
23996;BME280;12207;50.076;8.848;2022-09-28T08:01:51;98243.34;;;13.35;100.00
23996;BME280;12207;50.076;8.848;2022-09-28T08:04:18;98239.88;;;13.27;100.00
23996;BME280;12207;50.076;8.848;2022-09-28T08:06:45;98237.03;;;13.02;100.00
23996;BME280;12207;50.076;8.848;2022-09-28T08:09:13;98241.25;;;12.98;100.00
23996;BME280;12207;50.076;8.848;2022-09-28T08:11:40;98244.22;;;13.37;100.00
23996;BME280;12207;50.076;8.848;2022-09-28T08:14:09;98242.75;;;13.66;100.00
23996;BME280;12207;50.076;8.848;2022-09-28T08:16:36;98249.63;;;13.69;100.00
23996;BME280;12207;50.076;8.848;2022-09-28T08:19:03;98249.72;;;13.86;100.00
23996;BME280;12207;50.076;8.848;2022-09-28T08:21:29;98258.41;;;14.06;100.00
23996;BME280;12207;50.076;8.848;2022-09-28T08:24:12;98259.75;;;13.55;100.00
23996;BME280;12207;50.076;8.848;2022-09-28T08:26:39;98258.53;;;13.19;98.52
23996;BME280;12207;50.076;8.848;2022-09-28T08:29:06;98261.63;;;13.75;100.00
23996;BME280;12207;50.076;8.848;2022-09-28T08:31:33;98267.53;;;13.67;100.00
23996;BME280;12207;50.076;8.848;2022-09-28T08:33:59;98266.94;;;14.02;99.19
23996;BME280;12207;50.076;8.848;2022-09-28T08:36:26;98278.16;;;14.20;96.52
23996;BME280;12207;50.076;8.848;2022-09-28T08:38:53;98270.31;;;13.95;100.00
23996;BME280;12207;50.076;8.848;2022-09-28T08:43:53;98265.44;;;14.44;92.73
23996;BME280;12207;50.076;8.848;2022-09-28T08:46:23;98268.13;;;14.66;93.03
23996;BME280;12207;50.076;8.848;2022-09-28T08:51:54;98282.03;;;13.62;100.00
23996;BME280;12207;50.076;8.848;2022-09-28T08:54:26;98287.50;;;14.11;93.67
23996;BME280;12207;50.076;8.848;2022-09-28T08:59:39;98283.53;;;14.63;88.58
23996;BME280;12207;50.076;8.848;2022-09-28T09:02:08;98284.56;;;15.20;89.45
23996;BME280;12207;50.076;8.848;2022-09-28T09:04:39;98284.41;;;14.68;90.40
23996;BME280;12207;50.076;8.848;2022-09-28T09:07:10;98284.47;;;14.80;90.82
23996;BME280;12207;50.076;8.848;2022-09-28T09:20:17;98303.75;;;14.10;99.09
23996;BME280;12207;50.076;8.848;2022-09-28T09:22:49;98305.56;;;14.25;99.92
23996;BME280;12207;50.076;8.848;2022-09-28T09:25:20;98306.59;;;13.39;94.61
23996;BME280;12207;50.076;8.848;2022-09-28T09:30:20;98302.78;;;13.96;88.91
23996;BME280;12207;50.076;8.848;2022-09-28T09:33:11;98312.88;;;13.73;95.63
23996;BME280;12207;50.076;8.848;2022-09-28T09:38:34;98306.72;;;12.73;97.82
23996;BME280;12207;50.076;8.848;2022-09-28T09:46:37;98310.19;;;12.16;100.00
23996;BME280;12207;50.076;8.848;2022-09-28T09:49:09;98308.34;;;12.07;100.00
23996;BME280;12207;50.076;8.848;2022-09-28T09:51:47;98303.94;;;11.96;100.00
23996;BME280;12207;50.076;8.848;2022-09-28T09:54:20;98313.31;;;11.97;100.00
23996;BME280;12207;50.076;8.848;2022-09-28T09:56:54;98317.50;;;13.22;100.00
23996;BME280;12207;50.076;8.848;2022-09-28T09:59:24;98308.47;;;14.91;95.79
23996;BME280;12207;50.076;8.848;2022-09-28T10:01:52;98313.66;;;15.03;87.63
23996;BME280;12207;50.076;8.848;2022-09-28T10:04:20;98309.25;;;14.75;88.90
23996;BME280;12207;50.076;8.848;2022-09-28T10:06:48;98319.25;;;14.27;88.73
23996;BME280;12207;50.076;8.848;2022-09-28T10:09:22;98319.19;;;14.18;88.58
23996;BME280;12207;50.076;8.848;2022-09-28T10:11:50;98309.03;;;14.36;90.24
23996;BME280;12207;50.076;8.848;2022-09-28T10:14:18;98310.13;;;14.72;88.69
23996;BME280;12207;50.076;8.848;2022-09-28T10:16:48;98305.09;;;15.11;84.80
23996;BME280;12207;50.076;8.848;2022-09-28T10:19:17;98301.75;;;15.42;82.81
23996;BME280;12207;50.076;8.848;2022-09-28T10:21:45;98310.19;;;14.94;80.87
23996;BME280;12207;50.076;8.848;2022-09-28T10:24:16;98300.66;;;14.68;84.65
23996;BME280;12207;50.076;8.848;2022-09-28T10:26:45;98309.09;;;14.44;85.03
23996;BME280;12207;50.076;8.848;2022-09-28T10:29:20;98317.50;;;14.22;84.37
23996;BME280;12207;50.076;8.848;2022-09-28T10:31:51;98317.03;;;13.62;86.69
23996;BME280;12207;50.076;8.848;2022-09-28T10:34:23;98320.91;;;13.23;92.38
23996;BME280;12207;50.076;8.848;2022-09-28T10:36:54;98320.88;;;13.18;90.99
23996;BME280;12207;50.076;8.848;2022-09-28T10:41:50;98319.91;;;13.09;87.92
23996;BME280;12207;50.076;8.848;2022-09-28T10:44:17;98330.78;;;12.91;90.18
23996;BME280;12207;50.076;8.848;2022-09-28T10:46:45;98337.97;;;13.22;91.51
23996;BME280;12207;50.076;8.848;2022-09-28T10:49:20;98335.41;;;13.22;91.29
23996;BME280;12207;50.076;8.848;2022-09-28T10:51:48;98341.38;;;13.20;90.69
23996;BME280;12207;50.076;8.848;2022-09-28T10:54:20;98334.50;;;13.16;91.33
23996;BME280;12207;50.076;8.848;2022-09-28T10:56:47;98343.09;;;13.22;92.99
23996;BME280;12207;50.076;8.848;2022-09-28T11:01:57;98345.34;;;13.73;87.45
23996;BME280;12207;50.076;8.848;2022-09-28T11:04:25;98343.81;;;13.93;88.43
23996;BME280;12207;50.076;8.848;2022-09-28T11:06:53;98346.66;;;14.36;85.71
23996;BME280;12207;50.076;8.848;2022-09-28T11:09:28;98340.00;;;14.61;84.06
23996;BME280;12207;50.076;8.848;2022-09-28T11:11:58;98341.00;;;14.85;85.02
23996;BME280;12207;50.076;8.848;2022-09-28T11:19:53;98331.44;;;14.56;81.21
23996;BME280;12207;50.076;8.848;2022-09-28T11:22:27;98337.50;;;14.70;80.82
23996;BME280;12207;50.076;8.848;2022-09-28T11:30:24;98336.41;;;14.34;84.28
23996;BME280;12207;50.076;8.848;2022-09-28T11:33:02;98328.69;;;14.33;82.86
23996;BME280;12207;50.076;8.848;2022-09-28T11:40:50;98329.59;;;14.41;84.02
23996;BME280;12207;50.076;8.848;2022-09-28T11:43:36;98329.53;;;14.30;80.90
23996;BME280;12207;50.076;8.848;2022-09-28T11:46:12;98331.34;;;14.48;83.53
23996;BME280;12207;50.076;8.848;2022-09-28T11:48:48;98328.09;;;14.72;83.91
23996;BME280;12207;50.076;8.848;2022-09-28T11:51:34;98331.44;;;14.59;81.49
23996;BME280;12207;50.076;8.848;2022-09-28T11:54:02;98323.91;;;14.94;81.71
23996;BME280;12207;50.076;8.848;2022-09-28T11:59:02;98323.00;;;14.85;77.12
23996;BME280;12207;50.076;8.848;2022-09-28T12:04:02;98322.03;;;14.59;77.97
23996;BME280;12207;50.076;8.848;2022-09-28T12:06:46;98326.34;;;14.67;76.78
23996;BME280;12207;50.076;8.848;2022-09-28T12:09:19;98324.50;;;14.47;78.41
23996;BME280;12207;50.076;8.848;2022-09-28T12:11:48;98325.47;;;14.63;79.06
23996;BME280;12207;50.076;8.848;2022-09-28T12:14:18;98323.88;;;14.85;78.89
23996;BME280;12207;50.076;8.848;2022-09-28T12:16:51;98329.00;;;14.82;77.93
23996;BME280;12207;50.076;8.848;2022-09-28T12:19:21;98331.41;;;14.53;75.74
23996;BME280;12207;50.076;8.848;2022-09-28T12:21:50;98336.44;;;14.41;81.50
23996;BME280;12207;50.076;8.848;2022-09-28T12:24:29;98336.41;;;14.39;81.25
23996;BME280;12207;50.076;8.848;2022-09-28T12:30:10;98327.13;;;14.52;81.26
23996;BME280;12207;50.076;8.848;2022-09-28T12:32:22;98333.88;;;14.45;81.84
23996;BME280;12207;50.076;8.848;2022-09-28T12:34:50;98337.28;;;14.41;81.35
23996;BME280;12207;50.076;8.848;2022-09-28T12:37:30;98328.78;;;14.50;78.03
23996;BME280;12207;50.076;8.848;2022-09-28T12:50:29;98321.91;;;14.43;79.98
23996;BME280;12207;50.076;8.848;2022-09-28T12:53:03;98329.75;;;14.61;84.87
23996;BME280;12207;50.076;8.848;2022-09-28T12:58:29;98332.16;;;14.38;78.16
23996;BME280;12207;50.076;8.848;2022-09-28T13:00:56;98322.97;;;14.80;78.43
23996;BME280;12207;50.076;8.848;2022-09-28T13:09:14;98341.41;;;14.13;74.56
23996;BME280;12207;50.076;8.848;2022-09-28T13:11:45;98339.53;;;13.94;76.76
23996;BME280;12207;50.076;8.848;2022-09-28T13:16:55;98347.06;;;13.77;79.96
23996;BME280;12207;50.076;8.848;2022-09-28T13:19:38;98333.28;;;13.59;79.89
23996;BME280;12207;50.076;8.848;2022-09-28T13:24:35;98343.22;;;13.32;81.12
23996;BME280;12207;50.076;8.848;2022-09-28T13:27:05;98344.09;;;13.32;80.14
23996;BME280;12207;50.076;8.848;2022-09-28T13:29:35;98332.16;;;13.34;81.25
23996;BME280;12207;50.076;8.848;2022-09-28T13:32:03;98337.44;;;13.50;80.02
23996;BME280;12207;50.076;8.848;2022-09-28T13:34:31;98338.41;;;13.59;81.27
23996;BME280;12207;50.076;8.848;2022-09-28T13:45:01;98346.22;;;13.75;79.73
23996;BME280;12207;50.076;8.848;2022-09-28T13:50:37;98336.19;;;14.02;78.16
23996;BME280;12207;50.076;8.848;2022-09-28T13:53:31;98337.47;;;14.64;76.28
23996;BME280;12207;50.076;8.848;2022-09-28T13:58:34;98334.00;;;14.56;76.36
23996;BME280;12207;50.076;8.848;2022-09-28T14:06:20;98326.34;;;14.64;78.71
23996;BME280;12207;50.076;8.848;2022-09-28T14:14:00;98334.16;;;14.88;76.70
23996;BME280;12207;50.076;8.848;2022-09-28T14:16:27;98336.69;;;14.87;75.59
23996;BME280;12207;50.076;8.848;2022-09-28T14:19:02;98330.72;;;14.95;77.39
23996;BME280;12207;50.076;8.848;2022-09-28T14:24:28;98329.81;;;14.73;79.84
23996;BME280;12207;50.076;8.848;2022-09-28T14:27:07;98334.03;;;14.65;81.27
23996;BME280;12207;50.076;8.848;2022-09-28T14:29:37;98337.34;;;14.50;82.50
23996;BME280;12207;50.076;8.848;2022-09-28T14:32:19;98338.97;;;14.36;81.80
23996;BME280;12207;50.076;8.848;2022-09-28T14:34:47;98342.25;;;14.13;82.79
23996;BME280;12207;50.076;8.848;2022-09-28T14:37:29;98348.06;;;13.89;81.31
23996;BME280;12207;50.076;8.848;2022-09-28T14:40:16;98349.63;;;13.75;85.52
23996;BME280;12207;50.076;8.848;2022-09-28T14:45:50;98342.50;;;13.43;82.28
23996;BME280;12207;50.076;8.848;2022-09-28T14:53:52;98342.63;;;13.54;87.01
23996;BME280;12207;50.076;8.848;2022-09-28T14:56:20;98349.44;;;13.54;85.49
23996;BME280;12207;50.076;8.848;2022-09-28T14:58:50;98347.75;;;13.59;87.91
23996;BME280;12207;50.076;8.848;2022-09-28T15:01:19;98351.31;;;13.73;89.61
23996;BME280;12207;50.076;8.848;2022-09-28T15:03:47;98353.28;;;14.02;85.60
23996;BME280;12207;50.076;8.848;2022-09-28T15:06:16;98356.13;;;14.43;84.18
23996;BME280;12207;50.076;8.848;2022-09-28T15:08:44;98356.88;;;14.25;82.13
23996;BME280;12207;50.076;8.848;2022-09-28T15:11:15;98357.53;;;13.98;83.82
23996;BME280;12207;50.076;8.848;2022-09-28T15:13:43;98360.00;;;13.87;89.11
23996;BME280;12207;50.076;8.848;2022-09-28T15:16:10;98368.34;;;13.66;84.03
23996;BME280;12207;50.076;8.848;2022-09-28T15:21:20;98370.00;;;13.61;87.33
23996;BME280;12207;50.076;8.848;2022-09-28T15:23:46;98365.69;;;13.56;88.25
23996;BME280;12207;50.076;8.848;2022-09-28T15:26:20;98375.88;;;13.50;91.87
23996;BME280;12207;50.076;8.848;2022-09-28T15:28:48;98371.53;;;13.42;87.26
23996;BME280;12207;50.076;8.848;2022-09-28T15:31:16;98369.88;;;13.46;87.39
23996;BME280;12207;50.076;8.848;2022-09-28T15:33:43;98378.44;;;13.50;90.84
23996;BME280;12207;50.076;8.848;2022-09-28T15:36:28;98379.22;;;13.44;88.52
23996;BME280;12207;50.076;8.848;2022-09-28T15:41:22;98375.78;;;13.39;92.46
23996;BME280;12207;50.076;8.848;2022-09-28T15:44:36;98384.28;;;13.38;96.80
23996;BME280;12207;50.076;8.848;2022-09-28T15:46:43;98380.81;;;13.31;93.95